Meratus Malino — POZH — position and weather

sailwx.info

Track history (hours):
 
Tides and Currents Weather Stations Pressure Air Temp Water Temp Dewpoint Dewpoint Depression Visibility Wind Speed Wind Dir Waves Ship Positions

Meratus Malino

Last reported at 2018-Apr-21 16:06 UTC. Time now 2018-Apr-26 01:49 UTC.
Position N 01°14' E 103°20'.

Length 149 m; draft 7 m.

Type: Cargo ship. MMSI: 525025089.

Date/timePositionNaut miles runAvg speedWind from/ knotsBaromVisibWave heightAir tempDewpointWater temp
2018-Apr-21 16:06N 01°14' E 103°20'1113.4
2018-Apr-21 15:16N 01°07' E 103°29'413.5
2018-Apr-21 14:57N 01°05' E 103°32'  
2018-Apr-19 00:05S 05°53' E 111°21'310.6
2018-Apr-18 23:50S 05°54' E 111°23'410.6
2018-Apr-18 23:30S 05°56' E 111°26'510.5
2018-Apr-18 23:00S 05°59' E 111°30'510.5
2018-Apr-18 22:30S 06°02' E 111°35'8010.4
2018-Apr-18 14:49S 06°47' E 112°41'310.6
2018-Apr-18 14:30S 06°48' E 112°44'5 9.1
2018-Apr-18 13:56S 06°54' E 112°44'4 8.4
2018-Apr-18 13:26S 06°58' E 112°43'4 9.3
2018-Apr-18 13:00S 07°01' E 112°40'5 8.7
2018-Apr-18 12:24S 07°06' E 112°40'5 0.5
2018-Apr-18 01:23S 07°11' E 112°41'0 0.0
2018-Apr-17 21:53S 07°11' E 112°41'0 0.0
2018-Apr-17 07:35S 07°11' E 112°41'0 0.0
2018-Apr-17 06:05S 07°11' E 112°41'0 0.0
2018-Apr-17 05:50S 07°11' E 112°41'0 0.0
2018-Apr-16 21:53S 07°11' E 112°41'0 0.0
2018-Apr-16 11:40S 07°11' E 112°41'0 0.0
2018-Apr-16 11:28S 07°11' E 112°41'1 0.8
2018-Apr-16 10:51S 07°11' E 112°41'3 9.7
2018-Apr-16 10:30S 07°08' E 112°39'612.2
2018-Apr-16 09:58S 07°01' E 112°40'511.2
2018-Apr-16 09:30S 06°57' E 112°43'6 9.1
2018-Apr-16 08:51S 06°51' E 112°45'0 0.3
2018-Apr-16 07:34S 06°51' E 112°45'0 0.0
2018-Apr-16 05:58S 06°51' E 112°45'0 0.0
2018-Apr-16 02:46S 06°51' E 112°45'0 0.0
2018-Apr-15 23:43S 06°51' E 112°45'0 0.1
2018-Apr-15 23:28S 06°51' E 112°45'  
Track history (hours):
 
Tides and Currents Weather Stations Pressure Air Temp Water Temp Dewpoint Dewpoint Depression Visibility Wind Speed Wind Dir Waves Ship Positions

Meratus Malino

Last reported at 2018-Apr-21 16:06 UTC. Time now 2018-Apr-26 01:49 UTC.
Position N 01°14' E 103°20'.

Length 149 m; draft 7 m.

Type: Cargo ship. MMSI: 525025089.

Date/timePositionNaut miles runAvg speedWind from/ knotsBaromVisibWave heightAir tempDewpointWater temp
2018-Apr-21 16:06N 01°14' E 103°20'1113.4
2018-Apr-21 15:16N 01°07' E 103°29'413.5
2018-Apr-21 14:57N 01°05' E 103°32'  
2018-Apr-19 00:05S 05°53' E 111°21'310.6
2018-Apr-18 23:50S 05°54' E 111°23'410.6
2018-Apr-18 23:30S 05°56' E 111°26'510.5
2018-Apr-18 23:00S 05°59' E 111°30'510.5
2018-Apr-18 22:30S 06°02' E 111°35'8010.4
2018-Apr-18 14:49S 06°47' E 112°41'310.6
2018-Apr-18 14:30S 06°48' E 112°44'5 9.1
2018-Apr-18 13:56S 06°54' E 112°44'4 8.4
2018-Apr-18 13:26S 06°58' E 112°43'4 9.3
2018-Apr-18 13:00S 07°01' E 112°40'5 8.7
2018-Apr-18 12:24S 07°06' E 112°40'5 0.5
2018-Apr-18 01:23S 07°11' E 112°41'0 0.0
2018-Apr-17 21:53S 07°11' E 112°41'0 0.0
2018-Apr-17 07:35S 07°11' E 112°41'0 0.0
2018-Apr-17 06:05S 07°11' E 112°41'0 0.0
2018-Apr-17 05:50S 07°11' E 112°41'0 0.0
2018-Apr-16 21:53S 07°11' E 112°41'0 0.0
2018-Apr-16 11:40S 07°11' E 112°41'0 0.0
2018-Apr-16 11:28S 07°11' E 112°41'1 0.8
2018-Apr-16 10:51S 07°11' E 112°41'3 9.7
2018-Apr-16 10:30S 07°08' E 112°39'612.2
2018-Apr-16 09:58S 07°01' E 112°40'511.2
2018-Apr-16 09:30S 06°57' E 112°43'6 9.1
2018-Apr-16 08:51S 06°51' E 112°45'0 0.3
2018-Apr-16 07:34S 06°51' E 112°45'0 0.0
2018-Apr-16 05:58S 06°51' E 112°45'0 0.0
2018-Apr-16 02:46S 06°51' E 112°45'0 0.0
2018-Apr-15 23:43S 06°51' E 112°45'0 0.1
2018-Apr-15 23:28S 06°51' E 112°45'  

Dump ship's entire track history